sensor_id;sensor_type;location;lat;lon;timestamp;pressure;altitude;pressure_sealevel;temperature
72675;BMP280;60752;53.962;9.614;2023-04-25T00:27:32;58360.25;;;4.72
72675;BMP280;60752;53.962;9.614;2023-04-25T00:57:34;58358.28;;;4.72
72675;BMP280;60752;53.962;9.614;2023-04-25T01:27:36;58377.97;;;4.72
72675;BMP280;60752;53.962;9.614;2023-04-25T01:57:38;58393.72;;;4.72
72675;BMP280;60752;53.962;9.614;2023-04-25T02:27:40;58374.03;;;4.72
72675;BMP280;60752;53.962;9.614;2023-04-25T02:57:42;58366.16;;;4.72
72675;BMP280;60752;53.962;9.614;2023-04-25T03:27:44;58385.84;;;4.72
72675;BMP280;60752;53.962;9.614;2023-04-25T03:57:46;58372.06;;;4.72
72675;BMP280;60752;53.962;9.614;2023-04-25T04:27:48;58401.59;;;4.72
72675;BMP280;60752;53.962;9.614;2023-04-25T04:57:49;58379.94;;;4.72
72675;BMP280;60752;53.962;9.614;2023-04-25T05:27:51;58387.81;;;4.72
72675;BMP280;60752;53.962;9.614;2023-04-25T05:57:53;58364.19;;;4.72
72675;BMP280;60752;53.962;9.614;2023-04-25T06:27:55;58381.91;;;4.72
72675;BMP280;60752;53.962;9.614;2023-04-25T06:57:57;58403.56;;;4.72
72675;BMP280;60752;53.962;9.614;2023-04-25T07:27:58;58405.53;;;4.72
72675;BMP280;60752;53.962;9.614;2023-04-25T07:58:00;58411.44;;;4.72
72675;BMP280;60752;53.962;9.614;2023-04-25T08:28:02;58413.41;;;4.72
72675;BMP280;60752;53.962;9.614;2023-04-25T08:58:04;58435.06;;;4.72
72675;BMP280;60752;53.962;9.614;2023-04-25T09:28:06;58460.66;;;4.72
72675;BMP280;60752;53.962;9.614;2023-04-25T09:58:10;58450.81;;;4.72
72675;BMP280;60752;53.962;9.614;2023-04-25T10:28:13;58480.34;;;4.72
72675;BMP280;60752;53.962;9.614;2023-04-25T10:58:21;58431.13;;;4.72
72675;BMP280;60752;53.962;9.614;2023-04-25T11:28:22;58440.97;;;4.72
72675;BMP280;60752;53.962;9.614;2023-04-25T11:58:25;58393.72;;;4.72
72675;BMP280;60752;53.962;9.614;2023-04-25T12:28:27;58395.69;;;4.72
72675;BMP280;60752;53.962;9.614;2023-04-25T12:58:29;58435.06;;;4.72
72675;BMP280;60752;53.962;9.614;2023-04-25T13:28:30;58407.50;;;4.72
72675;BMP280;60752;53.962;9.614;2023-04-25T13:58:32;58419.31;;;4.72
72675;BMP280;60752;53.962;9.614;2023-04-25T14:28:34;58391.75;;;4.72
72675;BMP280;60752;53.962;9.614;2023-04-25T14:58:39;58397.66;;;4.72
72675;BMP280;60752;53.962;9.614;2023-04-25T15:28:41;58395.69;;;4.72
72675;BMP280;60752;53.962;9.614;2023-04-25T15:58:43;58377.97;;;4.72
72675;BMP280;60752;53.962;9.614;2023-04-25T16:28:45;58399.63;;;4.72
72675;BMP280;60752;53.962;9.614;2023-04-25T16:58:47;58377.97;;;4.72
72675;BMP280;60752;53.962;9.614;2023-04-25T17:28:49;58377.97;;;4.72
72675;BMP280;60752;53.962;9.614;2023-04-25T17:58:50;58407.50;;;4.72
72675;BMP280;60752;53.962;9.614;2023-04-25T18:28:52;58407.50;;;4.72
72675;BMP280;60752;53.962;9.614;2023-04-25T18:58:55;58360.25;;;4.72
72675;BMP280;60752;53.962;9.614;2023-04-25T19:29:05;58372.06;;;4.72
72675;BMP280;60752;53.962;9.614;2023-04-25T19:59:07;58391.75;;;4.72
72675;BMP280;60752;53.962;9.614;2023-04-25T20:29:09;58366.16;;;4.72
72675;BMP280;60752;53.962;9.614;2023-04-25T20:59:11;58383.88;;;4.72
72675;BMP280;60752;53.962;9.614;2023-04-25T21:29:13;58348.44;;;4.72
72675;BMP280;60752;53.962;9.614;2023-04-25T21:59:14;58376.00;;;4.72
72675;BMP280;60752;53.962;9.614;2023-04-25T22:29:16;58352.38;;;4.72
72675;BMP280;60752;53.962;9.614;2023-04-25T22:59:18;58368.13;;;4.72
72675;BMP280;60752;53.962;9.614;2023-04-25T23:29:20;58370.09;;;4.72
72675;BMP280;60752;53.962;9.614;2023-04-25T23:59:22;58391.75;;;4.72
